sensor_id;sensor_type;location;lat;lon;timestamp;temperature;humidity
72762;SHT30;60886;55.034;73.150;2022-09-09T00:02:23;7.96;78.07
72762;SHT30;60886;55.034;73.150;2022-09-09T00:05:08;7.96;78.31
72762;SHT30;60886;55.034;73.150;2022-09-09T00:07:53;7.98;77.92
72762;SHT30;60886;55.034;73.150;2022-09-09T00:10:39;8.01;78.46
72762;SHT30;60886;55.034;73.150;2022-09-09T00:13:20;7.98;78.82
72762;SHT30;60886;55.034;73.150;2022-09-09T00:15:59;7.92;78.33
72762;SHT30;60886;55.034;73.150;2022-09-09T00:18:44;7.93;78.40
72762;SHT30;60886;55.034;73.150;2022-09-09T00:21:14;7.86;78.65
72762;SHT30;60886;55.034;73.150;2022-09-09T00:23:53;7.81;78.63
72762;SHT30;60886;55.034;73.150;2022-09-09T00:31:36;7.62;80.33
72762;SHT30;60886;55.034;73.150;2022-09-09T00:34:13;7.55;79.75
72762;SHT30;60886;55.034;73.150;2022-09-09T00:36:41;7.44;80.27
72762;SHT30;60886;55.034;73.150;2022-09-09T00:41:59;7.37;80.92
72762;SHT30;60886;55.034;73.150;2022-09-09T00:47:53;7.34;81.38
72762;SHT30;60886;55.034;73.150;2022-09-09T00:50:39;7.27;79.94
72762;SHT30;60886;55.034;73.150;2022-09-09T00:53:33;7.13;79.83
72762;SHT30;60886;55.034;73.150;2022-09-09T00:56:14;7.04;80.55
72762;SHT30;60886;55.034;73.150;2022-09-09T01:01:25;7.14;80.69
72762;SHT30;60886;55.034;73.150;2022-09-09T01:03:54;7.11;81.23
72762;SHT30;60886;55.034;73.150;2022-09-09T01:06:30;7.10;80.92
72762;SHT30;60886;55.034;73.150;2022-09-09T01:12:07;7.08;81.92
72762;SHT30;60886;55.034;73.150;2022-09-09T01:17:25;7.10;82.20
72762;SHT30;60886;55.034;73.150;2022-09-09T01:20:20;7.11;81.77
72762;SHT30;60886;55.034;73.150;2022-09-09T01:23:38;7.21;81.71
72762;SHT30;60886;55.034;73.150;2022-09-09T01:26:26;7.26;82.12
72762;SHT30;60886;55.034;73.150;2022-09-09T01:28:57;7.28;82.41
72762;SHT30;60886;55.034;73.150;2022-09-09T01:31:39;7.38;81.43
72762;SHT30;60886;55.034;73.150;2022-09-09T01:34:13;7.50;81.71
72762;SHT30;60886;55.034;73.150;2022-09-09T01:36:51;7.62;81.26
72762;SHT30;60886;55.034;73.150;2022-09-09T01:39:20;7.77;79.50
72762;SHT30;60886;55.034;73.150;2022-09-09T01:41:53;7.88;79.63
72762;SHT30;60886;55.034;73.150;2022-09-09T01:44:25;7.95;78.80
72762;SHT30;60886;55.034;73.150;2022-09-09T01:46:51;8.02;78.82
72762;SHT30;60886;55.034;73.150;2022-09-09T01:49:21;8.07;78.68
72762;SHT30;60886;55.034;73.150;2022-09-09T01:51:55;8.12;77.97
72762;SHT30;60886;55.034;73.150;2022-09-09T01:54:36;8.22;77.60
72762;SHT30;60886;55.034;73.150;2022-09-09T02:05:31;8.68;77.60
72762;SHT30;60886;55.034;73.150;2022-09-09T02:08:06;8.85;75.79
72762;SHT30;60886;55.034;73.150;2022-09-09T02:13:32;9.11;75.36
72762;SHT30;60886;55.034;73.150;2022-09-09T02:19:08;9.04;75.69
72762;SHT30;60886;55.034;73.150;2022-09-09T02:22:19;9.12;75.74
72762;SHT30;60886;55.034;73.150;2022-09-09T02:24:50;9.31;76.75
72762;SHT30;60886;55.034;73.150;2022-09-09T02:27:23;9.49;74.35
72762;SHT30;60886;55.034;73.150;2022-09-09T02:30:00;9.69;75.67
72762;SHT30;60886;55.034;73.150;2022-09-09T02:32:52;9.89;74.13
72762;SHT30;60886;55.034;73.150;2022-09-09T02:35:28;10.00;74.00
72762;SHT30;60886;55.034;73.150;2022-09-09T02:38:00;10.20;73.20
72762;SHT30;60886;55.034;73.150;2022-09-09T02:40:27;10.36;72.59
72762;SHT30;60886;55.034;73.150;2022-09-09T02:42:59;10.48;72.64
72762;SHT30;60886;55.034;73.150;2022-09-09T02:45:34;10.71;71.73
72762;SHT30;60886;55.034;73.150;2022-09-09T02:49:04;10.91;71.72
72762;SHT30;60886;55.034;73.150;2022-09-09T02:51:22;11.23;73.09
72762;SHT30;60886;55.034;73.150;2022-09-09T02:54:03;11.47;71.90
72762;SHT30;60886;55.034;73.150;2022-09-09T02:56:39;11.72;71.50
72762;SHT30;60886;55.034;73.150;2022-09-09T02:59:07;11.90;69.72
72762;SHT30;60886;55.034;73.150;2022-09-09T03:01:41;12.05;68.85
72762;SHT30;60886;55.034;73.150;2022-09-09T03:04:08;12.23;68.25
72762;SHT30;60886;55.034;73.150;2022-09-09T03:06:36;12.37;68.21
72762;SHT30;60886;55.034;73.150;2022-09-09T03:09:13;12.59;67.57
72762;SHT30;60886;55.034;73.150;2022-09-09T03:11:39;12.74;67.66
72762;SHT30;60886;55.034;73.150;2022-09-09T03:14:06;12.89;67.00
72762;SHT30;60886;55.034;73.150;2022-09-09T03:16:46;13.03;66.76
72762;SHT30;60886;55.034;73.150;2022-09-09T03:19:13;13.23;66.43
72762;SHT30;60886;55.034;73.150;2022-09-09T03:21:40;13.38;67.78
72762;SHT30;60886;55.034;73.150;2022-09-09T03:24:06;13.59;65.86
72762;SHT30;60886;55.034;73.150;2022-09-09T03:26:33;13.78;63.71
72762;SHT30;60886;55.034;73.150;2022-09-09T03:29:00;14.00;61.61
72762;SHT30;60886;55.034;73.150;2022-09-09T03:31:27;14.12;61.14
72762;SHT30;60886;55.034;73.150;2022-09-09T03:33:57;14.29;60.60
72762;SHT30;60886;55.034;73.150;2022-09-09T03:36:26;14.39;59.76
72762;SHT30;60886;55.034;73.150;2022-09-09T03:38:55;14.52;61.51
72762;SHT30;60886;55.034;73.150;2022-09-09T03:41:32;14.66;61.48
72762;SHT30;60886;55.034;73.150;2022-09-09T03:44:06;14.85;59.73
72762;SHT30;60886;55.034;73.150;2022-09-09T03:46:43;15.09;59.49
72762;SHT30;60886;55.034;73.150;2022-09-09T03:49:09;15.16;56.44
72762;SHT30;60886;55.034;73.150;2022-09-09T03:51:36;15.17;56.66
72762;SHT30;60886;55.034;73.150;2022-09-09T03:54:03;15.34;58.29
72762;SHT30;60886;55.034;73.150;2022-09-09T03:56:34;15.51;55.70
72762;SHT30;60886;55.034;73.150;2022-09-09T03:59:02;15.61;55.44
72762;SHT30;60886;55.034;73.150;2022-09-09T04:01:29;15.77;57.82
72762;SHT30;60886;55.034;73.150;2022-09-09T04:03:56;15.90;53.37
72762;SHT30;60886;55.034;73.150;2022-09-09T04:06:28;15.87;53.11
72762;SHT30;60886;55.034;73.150;2022-09-09T04:08:56;15.80;52.13
72762;SHT30;60886;55.034;73.150;2022-09-09T04:11:24;15.77;53.13
72762;SHT30;60886;55.034;73.150;2022-09-09T04:13:53;15.90;53.91
72762;SHT30;60886;55.034;73.150;2022-09-09T04:16:22;15.97;53.99
72762;SHT30;60886;55.034;73.150;2022-09-09T04:18:58;15.95;51.00
72762;SHT30;60886;55.034;73.150;2022-09-09T04:21:26;16.06;50.87
72762;SHT30;60886;55.034;73.150;2022-09-09T04:23:55;16.15;50.90
72762;SHT30;60886;55.034;73.150;2022-09-09T04:26:21;16.26;50.81
72762;SHT30;60886;55.034;73.150;2022-09-09T04:28:54;16.43;50.03
72762;SHT30;60886;55.034;73.150;2022-09-09T04:31:33;16.62;50.28
72762;SHT30;60886;55.034;73.150;2022-09-09T04:34:05;16.76;49.42
72762;SHT30;60886;55.034;73.150;2022-09-09T04:36:32;16.83;48.86
72762;SHT30;60886;55.034;73.150;2022-09-09T04:39:02;16.70;48.34
72762;SHT30;60886;55.034;73.150;2022-09-09T04:41:29;16.79;48.83
72762;SHT30;60886;55.034;73.150;2022-09-09T04:43:58;16.69;49.49
72762;SHT30;60886;55.034;73.150;2022-09-09T04:46:26;16.84;48.68
72762;SHT30;60886;55.034;73.150;2022-09-09T04:48:52;16.86;49.03
72762;SHT30;60886;55.034;73.150;2022-09-09T04:51:20;16.86;47.77
72762;SHT30;60886;55.034;73.150;2022-09-09T04:53:52;16.69;48.92
72762;SHT30;60886;55.034;73.150;2022-09-09T04:56:20;16.51;48.33
72762;SHT30;60886;55.034;73.150;2022-09-09T04:58:51;16.38;48.22
72762;SHT30;60886;55.034;73.150;2022-09-09T05:01:21;16.22;50.14
72762;SHT30;60886;55.034;73.150;2022-09-09T05:03:51;16.08;49.86
72762;SHT30;60886;55.034;73.150;2022-09-09T05:06:22;15.90;49.96
72762;SHT30;60886;55.034;73.150;2022-09-09T05:08:52;15.77;49.76
72762;SHT30;60886;55.034;73.150;2022-09-09T05:11:25;15.67;51.49
72762;SHT30;60886;55.034;73.150;2022-09-09T05:14:06;15.70;50.90
72762;SHT30;60886;55.034;73.150;2022-09-09T05:16:33;15.71;51.74
72762;SHT30;60886;55.034;73.150;2022-09-09T05:18:59;15.71;49.91
72762;SHT30;60886;55.034;73.150;2022-09-09T05:21:30;15.61;49.55
72762;SHT30;60886;55.034;73.150;2022-09-09T05:24:02;15.50;49.25
72762;SHT30;60886;55.034;73.150;2022-09-09T05:26:38;15.44;50.30
72762;SHT30;60886;55.034;73.150;2022-09-09T05:29:05;15.44;49.51
72762;SHT30;60886;55.034;73.150;2022-09-09T05:31:34;15.46;51.43
72762;SHT30;60886;55.034;73.150;2022-09-09T05:34:04;15.51;50.77
72762;SHT30;60886;55.034;73.150;2022-09-09T05:36:30;15.51;49.28
72762;SHT30;60886;55.034;73.150;2022-09-09T05:38:56;15.62;50.32
72762;SHT30;60886;55.034;73.150;2022-09-09T05:41:25;15.60;49.76
72762;SHT30;60886;55.034;73.150;2022-09-09T05:43:54;15.39;50.14
72762;SHT30;60886;55.034;73.150;2022-09-09T05:46:26;15.29;51.03
72762;SHT30;60886;55.034;73.150;2022-09-09T05:48:54;15.14;51.36
72762;SHT30;60886;55.034;73.150;2022-09-09T05:51:36;15.06;51.09
72762;SHT30;60886;55.034;73.150;2022-09-09T05:54:07;15.10;52.00
72762;SHT30;60886;55.034;73.150;2022-09-09T05:56:37;15.20;51.59
72762;SHT30;60886;55.034;73.150;2022-09-09T05:59:06;15.30;54.50
72762;SHT30;60886;55.034;73.150;2022-09-09T06:01:34;15.39;56.54
72762;SHT30;60886;55.034;73.150;2022-09-09T06:04:08;15.49;56.16
72762;SHT30;60886;55.034;73.150;2022-09-09T06:06:48;15.71;57.57
72762;SHT30;60886;55.034;73.150;2022-09-09T06:09:24;15.87;54.23
72762;SHT30;60886;55.034;73.150;2022-09-09T06:11:51;15.95;54.01
72762;SHT30;60886;55.034;73.150;2022-09-09T06:14:20;15.97;52.70
72762;SHT30;60886;55.034;73.150;2022-09-09T06:16:49;15.98;53.09
72762;SHT30;60886;55.034;73.150;2022-09-09T06:19:30;16.05;51.49
72762;SHT30;60886;55.034;73.150;2022-09-09T06:21:58;16.08;50.99
72762;SHT30;60886;55.034;73.150;2022-09-09T06:24:28;16.08;52.43
72762;SHT30;60886;55.034;73.150;2022-09-09T06:26:56;16.12;50.96
72762;SHT30;60886;55.034;73.150;2022-09-09T06:29:27;16.12;51.49
72762;SHT30;60886;55.034;73.150;2022-09-09T06:32:03;16.21;49.31
72762;SHT30;60886;55.034;73.150;2022-09-09T06:34:34;16.22;50.37
72762;SHT30;60886;55.034;73.150;2022-09-09T06:37:04;16.26;49.97
72762;SHT30;60886;55.034;73.150;2022-09-09T06:39:38;16.21;50.91
72762;SHT30;60886;55.034;73.150;2022-09-09T06:42:05;16.23;49.11
72762;SHT30;60886;55.034;73.150;2022-09-09T06:44:46;16.45;50.34
72762;SHT30;60886;55.034;73.150;2022-09-09T06:47:20;16.65;48.91
72762;SHT30;60886;55.034;73.150;2022-09-09T06:49:47;16.84;46.62
72762;SHT30;60886;55.034;73.150;2022-09-09T06:52:13;16.88;46.93
72762;SHT30;60886;55.034;73.150;2022-09-09T06:54:40;16.90;46.52
72762;SHT30;60886;55.034;73.150;2022-09-09T06:57:07;16.87;46.68
72762;SHT30;60886;55.034;73.150;2022-09-09T06:59:34;16.94;46.67
72762;SHT30;60886;55.034;73.150;2022-09-09T07:02:02;17.07;46.03
72762;SHT30;60886;55.034;73.150;2022-09-09T07:04:38;17.31;46.79
72762;SHT30;60886;55.034;73.150;2022-09-09T07:07:05;17.54;46.38
72762;SHT30;60886;55.034;73.150;2022-09-09T07:09:31;17.65;45.16
72762;SHT30;60886;55.034;73.150;2022-09-09T07:11:58;17.61;44.27
72762;SHT30;60886;55.034;73.150;2022-09-09T07:14:28;17.54;43.82
72762;SHT30;60886;55.034;73.150;2022-09-09T07:17:00;17.42;44.07
72762;SHT30;60886;55.034;73.150;2022-09-09T07:19:31;17.52;44.38
72762;SHT30;60886;55.034;73.150;2022-09-09T07:21:57;17.58;43.31
72762;SHT30;60886;55.034;73.150;2022-09-09T07:24:30;17.57;42.64
72762;SHT30;60886;55.034;73.150;2022-09-09T07:26:58;17.62;42.66
72762;SHT30;60886;55.034;73.150;2022-09-09T07:29:26;17.58;43.35
72762;SHT30;60886;55.034;73.150;2022-09-09T07:31:54;17.60;42.16
72762;SHT30;60886;55.034;73.150;2022-09-09T07:34:32;17.50;44.08
72762;SHT30;60886;55.034;73.150;2022-09-09T07:37:00;17.55;42.79
72762;SHT30;60886;55.034;73.150;2022-09-09T07:39:28;17.62;43.20
72762;SHT30;60886;55.034;73.150;2022-09-09T07:41:57;17.57;39.99
72762;SHT30;60886;55.034;73.150;2022-09-09T07:44:27;17.44;42.30
72762;SHT30;60886;55.034;73.150;2022-09-09T07:47:19;17.54;41.94
72762;SHT30;60886;55.034;73.150;2022-09-09T07:49:48;17.64;41.32
72762;SHT30;60886;55.034;73.150;2022-09-09T07:52:19;17.71;42.36
72762;SHT30;60886;55.034;73.150;2022-09-09T07:54:48;17.75;41.82
72762;SHT30;60886;55.034;73.150;2022-09-09T07:57:17;17.86;42.42
72762;SHT30;60886;55.034;73.150;2022-09-09T07:59:44;18.02;42.18
72762;SHT30;60886;55.034;73.150;2022-09-09T08:02:12;18.16;42.83
72762;SHT30;60886;55.034;73.150;2022-09-09T08:04:41;18.23;41.44
72762;SHT30;60886;55.034;73.150;2022-09-09T08:07:12;18.30;40.51
72762;SHT30;60886;55.034;73.150;2022-09-09T08:09:52;18.47;40.86
72762;SHT30;60886;55.034;73.150;2022-09-09T08:12:30;18.50;40.50
72762;SHT30;60886;55.034;73.150;2022-09-09T08:14:57;18.61;39.80
72762;SHT30;60886;55.034;73.150;2022-09-09T08:17:27;18.77;38.92
72762;SHT30;60886;55.034;73.150;2022-09-09T08:19:53;18.76;38.01
72762;SHT30;60886;55.034;73.150;2022-09-09T08:22:24;18.84;40.09
72762;SHT30;60886;55.034;73.150;2022-09-09T08:24:51;18.93;38.81
72762;SHT30;60886;55.034;73.150;2022-09-09T08:27:18;18.94;38.51
72762;SHT30;60886;55.034;73.150;2022-09-09T08:29:54;18.94;39.00
72762;SHT30;60886;55.034;73.150;2022-09-09T08:32:22;18.93;39.85
72762;SHT30;60886;55.034;73.150;2022-09-09T08:34:49;18.84;39.14
72762;SHT30;60886;55.034;73.150;2022-09-09T08:37:24;18.80;39.03
72762;SHT30;60886;55.034;73.150;2022-09-09T08:39:52;18.66;38.40
72762;SHT30;60886;55.034;73.150;2022-09-09T08:45:24;18.84;38.51
72762;SHT30;60886;55.034;73.150;2022-09-09T08:48:24;18.97;38.01
72762;SHT30;60886;55.034;73.150;2022-09-09T08:50:53;19.01;38.55
72762;SHT30;60886;55.034;73.150;2022-09-09T08:53:33;19.03;38.24
72762;SHT30;60886;55.034;73.150;2022-09-09T08:56:14;19.00;38.18
72762;SHT30;60886;55.034;73.150;2022-09-09T08:58:52;18.91;36.64
72762;SHT30;60886;55.034;73.150;2022-09-09T09:05:00;18.91;35.37
72762;SHT30;60886;55.034;73.150;2022-09-09T09:16:00;18.98;35.86
72762;SHT30;60886;55.034;73.150;2022-09-09T09:18:28;18.97;35.07
72762;SHT30;60886;55.034;73.150;2022-09-09T09:23:35;18.86;34.84
72762;SHT30;60886;55.034;73.150;2022-09-09T09:26:08;18.88;35.55
72762;SHT30;60886;55.034;73.150;2022-09-09T09:28:42;18.96;35.13
72762;SHT30;60886;55.034;73.150;2022-09-09T09:31:15;19.01;34.48
72762;SHT30;60886;55.034;73.150;2022-09-09T09:33:56;18.97;35.09
72762;SHT30;60886;55.034;73.150;2022-09-09T09:36:44;19.04;34.93
72762;SHT30;60886;55.034;73.150;2022-09-09T09:39:30;19.06;35.58
72762;SHT30;60886;55.034;73.150;2022-09-09T09:42:09;19.04;35.58
72762;SHT30;60886;55.034;73.150;2022-09-09T09:44:37;19.07;35.69
72762;SHT30;60886;55.034;73.150;2022-09-09T09:47:21;19.00;35.06
72762;SHT30;60886;55.034;73.150;2022-09-09T09:49:59;18.94;34.76
72762;SHT30;60886;55.034;73.150;2022-09-09T09:52:33;18.86;35.75
72762;SHT30;60886;55.034;73.150;2022-09-09T09:55:12;18.88;35.96
72762;SHT30;60886;55.034;73.150;2022-09-09T09:57:41;18.90;36.08
72762;SHT30;60886;55.034;73.150;2022-09-09T10:00:15;18.88;36.75
72762;SHT30;60886;55.034;73.150;2022-09-09T10:02:50;18.87;36.45
72762;SHT30;60886;55.034;73.150;2022-09-09T10:05:29;18.83;36.37
72762;SHT30;60886;55.034;73.150;2022-09-09T10:08:11;18.88;35.98
72762;SHT30;60886;55.034;73.150;2022-09-09T10:11:00;18.91;36.75
72762;SHT30;60886;55.034;73.150;2022-09-09T10:19:34;18.91;36.78
72762;SHT30;60886;55.034;73.150;2022-09-09T10:22:31;18.96;36.77
72762;SHT30;60886;55.034;73.150;2022-09-09T10:28:21;19.03;35.89
72762;SHT30;60886;55.034;73.150;2022-09-09T10:33:41;19.17;35.90
72762;SHT30;60886;55.034;73.150;2022-09-09T10:36:17;19.25;36.27
72762;SHT30;60886;55.034;73.150;2022-09-09T10:38:47;19.24;36.80
72762;SHT30;60886;55.034;73.150;2022-09-09T10:41:16;19.19;37.23
72762;SHT30;60886;55.034;73.150;2022-09-09T10:46:40;19.19;37.50
72762;SHT30;60886;55.034;73.150;2022-09-09T10:55:39;19.25;38.01
72762;SHT30;60886;55.034;73.150;2022-09-09T10:58:29;19.08;38.28
72762;SHT30;60886;55.034;73.150;2022-09-09T11:01:02;18.93;36.89
72762;SHT30;60886;55.034;73.150;2022-09-09T11:03:37;18.80;37.37
72762;SHT30;60886;55.034;73.150;2022-09-09T11:06:12;18.74;37.06
72762;SHT30;60886;55.034;73.150;2022-09-09T11:08:40;18.77;37.48
72762;SHT30;60886;55.034;73.150;2022-09-09T11:11:22;18.81;38.50
72762;SHT30;60886;55.034;73.150;2022-09-09T11:19:25;19.17;37.22
72762;SHT30;60886;55.034;73.150;2022-09-09T11:21:55;19.19;37.09
72762;SHT30;60886;55.034;73.150;2022-09-09T11:24:37;19.18;35.66
72762;SHT30;60886;55.034;73.150;2022-09-09T11:27:17;19.08;34.85
72762;SHT30;60886;55.034;73.150;2022-09-09T11:32:34;18.76;35.19
72762;SHT30;60886;55.034;73.150;2022-09-09T11:38:19;18.56;34.67
72762;SHT30;60886;55.034;73.150;2022-09-09T11:40:53;18.56;35.00
72762;SHT30;60886;55.034;73.150;2022-09-09T11:43:25;18.50;35.16
72762;SHT30;60886;55.034;73.150;2022-09-09T11:45:55;18.49;35.07
72762;SHT30;60886;55.034;73.150;2022-09-09T11:48:36;18.47;35.51
72762;SHT30;60886;55.034;73.150;2022-09-09T11:51:10;18.47;36.41
72762;SHT30;60886;55.034;73.150;2022-09-09T11:56:48;18.43;36.44
72762;SHT30;60886;55.034;73.150;2022-09-09T11:59:26;18.36;37.28
72762;SHT30;60886;55.034;73.150;2022-09-09T12:07:03;18.22;37.59
72762;SHT30;60886;55.034;73.150;2022-09-09T12:14:43;17.91;38.53
72762;SHT30;60886;55.034;73.150;2022-09-09T12:17:22;17.86;37.53
72762;SHT30;60886;55.034;73.150;2022-09-09T12:20:11;17.83;37.90
72762;SHT30;60886;55.034;73.150;2022-09-09T12:26:07;17.79;38.24
72762;SHT30;60886;55.034;73.150;2022-09-09T12:29:10;17.78;38.46
72762;SHT30;60886;55.034;73.150;2022-09-09T12:31:48;17.72;38.25
72762;SHT30;60886;55.034;73.150;2022-09-09T12:37:33;17.64;39.43
72762;SHT30;60886;55.034;73.150;2022-09-09T12:40:27;17.61;40.27
72762;SHT30;60886;55.034;73.150;2022-09-09T12:42:55;17.51;40.62
72762;SHT30;60886;55.034;73.150;2022-09-09T12:45:26;17.41;40.68
72762;SHT30;60886;55.034;73.150;2022-09-09T12:48:10;17.42;40.79
72762;SHT30;60886;55.034;73.150;2022-09-09T12:50:48;17.38;40.98
72762;SHT30;60886;55.034;73.150;2022-09-09T12:53:28;17.32;41.87
72762;SHT30;60886;55.034;73.150;2022-09-09T12:55:59;17.28;41.53
72762;SHT30;60886;55.034;73.150;2022-09-09T12:58:26;17.23;41.81
72762;SHT30;60886;55.034;73.150;2022-09-09T13:01:03;17.11;42.50
72762;SHT30;60886;55.034;73.150;2022-09-09T13:03:32;17.06;42.46
72762;SHT30;60886;55.034;73.150;2022-09-09T13:06:17;16.97;43.22
72762;SHT30;60886;55.034;73.150;2022-09-09T13:08:53;16.87;42.36
72762;SHT30;60886;55.034;73.150;2022-09-09T13:11:28;16.86;42.42
72762;SHT30;60886;55.034;73.150;2022-09-09T13:13:57;16.75;42.82
72762;SHT30;60886;55.034;73.150;2022-09-09T13:16:28;16.63;42.89
72762;SHT30;60886;55.034;73.150;2022-09-09T13:19:06;16.52;45.51
72762;SHT30;60886;55.034;73.150;2022-09-09T13:21:40;16.35;43.69
72762;SHT30;60886;55.034;73.150;2022-09-09T13:24:30;16.26;44.58
72762;SHT30;60886;55.034;73.150;2022-09-09T13:27:36;16.15;44.57
72762;SHT30;60886;55.034;73.150;2022-09-09T13:33:20;15.90;46.09
72762;SHT30;60886;55.034;73.150;2022-09-09T13:35:54;15.80;46.02
72762;SHT30;60886;55.034;73.150;2022-09-09T13:41:28;15.54;46.92
72762;SHT30;60886;55.034;73.150;2022-09-09T13:43:56;15.43;47.01
72762;SHT30;60886;55.034;73.150;2022-09-09T13:46:37;15.37;47.51
72762;SHT30;60886;55.034;73.150;2022-09-09T13:51:44;15.20;47.23
72762;SHT30;60886;55.034;73.150;2022-09-09T13:54:15;15.14;48.27
72762;SHT30;60886;55.034;73.150;2022-09-09T13:56:43;15.06;50.82
72762;SHT30;60886;55.034;73.150;2022-09-09T13:59:13;14.95;50.42
72762;SHT30;60886;55.034;73.150;2022-09-09T14:01:40;14.83;50.74
72762;SHT30;60886;55.034;73.150;2022-09-09T14:04:07;14.72;51.76
72762;SHT30;60886;55.034;73.150;2022-09-09T14:06:44;14.61;49.17
72762;SHT30;60886;55.034;73.150;2022-09-09T14:09:13;14.51;51.45
72762;SHT30;60886;55.034;73.150;2022-09-09T14:11:51;14.35;52.56
72762;SHT30;60886;55.034;73.150;2022-09-09T14:14:17;14.26;51.33
72762;SHT30;60886;55.034;73.150;2022-09-09T14:16:44;14.18;55.50
72762;SHT30;60886;55.034;73.150;2022-09-09T14:19:11;14.05;56.01
72762;SHT30;60886;55.034;73.150;2022-09-09T14:21:38;13.97;56.36
72762;SHT30;60886;55.034;73.150;2022-09-09T14:24:05;13.85;56.04
72762;SHT30;60886;55.034;73.150;2022-09-09T14:26:38;13.81;56.09
72762;SHT30;60886;55.034;73.150;2022-09-09T14:29:07;13.75;57.85
72762;SHT30;60886;55.034;73.150;2022-09-09T14:31:38;13.63;57.73
72762;SHT30;60886;55.034;73.150;2022-09-09T14:34:06;13.51;55.51
72762;SHT30;60886;55.034;73.150;2022-09-09T14:36:38;13.46;56.29
72762;SHT30;60886;55.034;73.150;2022-09-09T14:39:07;13.40;58.47
72762;SHT30;60886;55.034;73.150;2022-09-09T14:41:38;13.33;56.16
72762;SHT30;60886;55.034;73.150;2022-09-09T14:44:04;13.26;58.18
72762;SHT30;60886;55.034;73.150;2022-09-09T14:46:31;13.18;56.35
72762;SHT30;60886;55.034;73.150;2022-09-09T14:49:00;13.08;56.79
72762;SHT30;60886;55.034;73.150;2022-09-09T14:51:27;13.00;57.35
72762;SHT30;60886;55.034;73.150;2022-09-09T14:53:59;12.93;56.55
72762;SHT30;60886;55.034;73.150;2022-09-09T14:56:37;12.89;56.68
72762;SHT30;60886;55.034;73.150;2022-09-09T14:59:15;12.81;60.59
72762;SHT30;60886;55.034;73.150;2022-09-09T15:01:45;12.72;61.99
72762;SHT30;60886;55.034;73.150;2022-09-09T15:04:12;12.55;60.59
72762;SHT30;60886;55.034;73.150;2022-09-09T15:06:44;12.44;64.26
72762;SHT30;60886;55.034;73.150;2022-09-09T15:09:18;12.44;62.87
72762;SHT30;60886;55.034;73.150;2022-09-09T15:11:44;12.34;60.69
72762;SHT30;60886;55.034;73.150;2022-09-09T15:14:21;12.28;60.33
72762;SHT30;60886;55.034;73.150;2022-09-09T15:16:52;12.24;61.10
72762;SHT30;60886;55.034;73.150;2022-09-09T15:19:19;12.23;59.94
72762;SHT30;60886;55.034;73.150;2022-09-09T15:21:45;12.21;63.63
72762;SHT30;60886;55.034;73.150;2022-09-09T15:24:12;12.17;62.71
72762;SHT30;60886;55.034;73.150;2022-09-09T15:26:50;12.11;61.59
72762;SHT30;60886;55.034;73.150;2022-09-09T15:29:27;12.05;61.13
72762;SHT30;60886;55.034;73.150;2022-09-09T15:31:54;12.04;62.72
72762;SHT30;60886;55.034;73.150;2022-09-09T15:34:23;11.98;62.13
72762;SHT30;60886;55.034;73.150;2022-09-09T15:37:00;11.89;62.83
72762;SHT30;60886;55.034;73.150;2022-09-09T15:39:37;11.82;64.42
72762;SHT30;60886;55.034;73.150;2022-09-09T15:42:03;11.73;64.95
72762;SHT30;60886;55.034;73.150;2022-09-09T15:44:38;11.65;65.11
72762;SHT30;60886;55.034;73.150;2022-09-09T15:47:05;11.60;66.55
72762;SHT30;60886;55.034;73.150;2022-09-09T15:49:32;11.43;63.97
72762;SHT30;60886;55.034;73.150;2022-09-09T15:52:00;11.32;67.06
72762;SHT30;60886;55.034;73.150;2022-09-09T15:54:35;11.15;63.71
72762;SHT30;60886;55.034;73.150;2022-09-09T15:57:07;11.08;67.20
72762;SHT30;60886;55.034;73.150;2022-09-09T15:59:34;10.97;69.97
72762;SHT30;60886;55.034;73.150;2022-09-09T16:02:08;10.89;69.91
72762;SHT30;60886;55.034;73.150;2022-09-09T16:04:35;10.81;71.58
72762;SHT30;60886;55.034;73.150;2022-09-09T16:07:06;10.74;71.51
72762;SHT30;60886;55.034;73.150;2022-09-09T16:09:33;10.67;68.02
72762;SHT30;60886;55.034;73.150;2022-09-09T16:12:09;10.63;69.37
72762;SHT30;60886;55.034;73.150;2022-09-09T16:14:45;10.55;69.73
72762;SHT30;60886;55.034;73.150;2022-09-09T16:17:11;10.54;67.38
72762;SHT30;60886;55.034;73.150;2022-09-09T16:19:41;10.57;70.35
72762;SHT30;60886;55.034;73.150;2022-09-09T16:22:08;10.54;68.62
72762;SHT30;60886;55.034;73.150;2022-09-09T16:24:35;10.55;68.51
72762;SHT30;60886;55.034;73.150;2022-09-09T16:27:07;10.45;70.35
72762;SHT30;60886;55.034;73.150;2022-09-09T16:29:33;10.41;72.02
72762;SHT30;60886;55.034;73.150;2022-09-09T16:32:04;10.41;70.74
72762;SHT30;60886;55.034;73.150;2022-09-09T16:34:31;10.44;67.82
72762;SHT30;60886;55.034;73.150;2022-09-09T16:37:00;10.51;68.40
72762;SHT30;60886;55.034;73.150;2022-09-09T16:39:32;10.47;66.78
72762;SHT30;60886;55.034;73.150;2022-09-09T16:41:58;10.44;70.23
72762;SHT30;60886;55.034;73.150;2022-09-09T16:44:25;10.40;70.11
72762;SHT30;60886;55.034;73.150;2022-09-09T16:47:02;10.43;70.98
72762;SHT30;60886;55.034;73.150;2022-09-09T16:49:28;10.41;70.72
72762;SHT30;60886;55.034;73.150;2022-09-09T16:52:00;10.40;72.37
72762;SHT30;60886;55.034;73.150;2022-09-09T16:54:28;10.27;71.74
72762;SHT30;60886;55.034;73.150;2022-09-09T16:56:54;10.13;69.00
72762;SHT30;60886;55.034;73.150;2022-09-09T16:59:21;9.99;72.42
72762;SHT30;60886;55.034;73.150;2022-09-09T17:01:53;9.90;72.49
72762;SHT30;60886;55.034;73.150;2022-09-09T17:04:29;9.90;71.21
72762;SHT30;60886;55.034;73.150;2022-09-09T17:06:56;9.99;69.00
72762;SHT30;60886;55.034;73.150;2022-09-09T17:09:26;9.92;68.68
72762;SHT30;60886;55.034;73.150;2022-09-09T17:12:06;9.93;70.57
72762;SHT30;60886;55.034;73.150;2022-09-09T17:14:32;9.92;70.97
72762;SHT30;60886;55.034;73.150;2022-09-09T17:16:58;9.81;68.94
72762;SHT30;60886;55.034;73.150;2022-09-09T17:19:28;9.79;72.65
72762;SHT30;60886;55.034;73.150;2022-09-09T17:22:00;9.79;72.61
72762;SHT30;60886;55.034;73.150;2022-09-09T17:24:27;9.81;72.21
72762;SHT30;60886;55.034;73.150;2022-09-09T17:26:58;9.79;71.43
72762;SHT30;60886;55.034;73.150;2022-09-09T17:29:25;9.82;72.36
72762;SHT30;60886;55.034;73.150;2022-09-09T17:31:52;10.00;71.26
72762;SHT30;60886;55.034;73.150;2022-09-09T17:34:18;10.17;69.42
72762;SHT30;60886;55.034;73.150;2022-09-09T17:36:45;10.30;67.93
72762;SHT30;60886;55.034;73.150;2022-09-09T17:39:11;10.43;66.48
72762;SHT30;60886;55.034;73.150;2022-09-09T17:41:40;10.60;65.69
72762;SHT30;60886;55.034;73.150;2022-09-09T17:44:17;10.67;65.69
72762;SHT30;60886;55.034;73.150;2022-09-09T17:46:53;10.72;64.43